sensor_id;sensor_type;location;lat;lon;timestamp;P1;durP1;ratioP1;P2;durP2;ratioP2
65315;SDS011;51920;53.952;10.292;2023-05-18T00:00:01;5.23;;;2.60;;
65315;SDS011;51920;53.952;10.292;2023-05-18T00:02:30;7.07;;;2.60;;
65315;SDS011;51920;53.952;10.292;2023-05-18T00:04:56;6.30;;;2.55;;
65315;SDS011;51920;53.952;10.292;2023-05-18T00:07:27;8.15;;;2.60;;
65315;SDS011;51920;53.952;10.292;2023-05-18T00:09:59;4.78;;;2.50;;
65315;SDS011;51920;53.952;10.292;2023-05-18T00:12:26;5.03;;;2.30;;
65315;SDS011;51920;53.952;10.292;2023-05-18T00:14:53;5.68;;;2.42;;
65315;SDS011;51920;53.952;10.292;2023-05-18T00:17:19;8.65;;;2.88;;
65315;SDS011;51920;53.952;10.292;2023-05-18T00:19:47;6.70;;;2.70;;
65315;SDS011;51920;53.952;10.292;2023-05-18T00:22:15;4.82;;;2.72;;
65315;SDS011;51920;53.952;10.292;2023-05-18T00:24:44;6.17;;;2.50;;
65315;SDS011;51920;53.952;10.292;2023-05-18T00:27:11;5.68;;;2.78;;
65315;SDS011;51920;53.952;10.292;2023-05-18T00:29:38;6.45;;;3.10;;
65315;SDS011;51920;53.952;10.292;2023-05-18T00:32:05;3.25;;;2.25;;
65315;SDS011;51920;53.952;10.292;2023-05-18T00:34:32;5.45;;;2.75;;
65315;SDS011;51920;53.952;10.292;2023-05-18T00:36:59;6.83;;;2.60;;
65315;SDS011;51920;53.952;10.292;2023-05-18T00:39:25;7.45;;;2.70;;
65315;SDS011;51920;53.952;10.292;2023-05-18T00:41:52;5.85;;;2.75;;
65315;SDS011;51920;53.952;10.292;2023-05-18T00:44:19;4.72;;;2.60;;
65315;SDS011;51920;53.952;10.292;2023-05-18T00:46:45;4.45;;;2.30;;
65315;SDS011;51920;53.952;10.292;2023-05-18T00:49:12;4.57;;;2.37;;
65315;SDS011;51920;53.952;10.292;2023-05-18T00:51:39;4.88;;;2.70;;
65315;SDS011;51920;53.952;10.292;2023-05-18T00:54:06;5.10;;;2.50;;
65315;SDS011;51920;53.952;10.292;2023-05-18T00:56:33;5.30;;;2.47;;
65315;SDS011;51920;53.952;10.292;2023-05-18T00:59:01;6.22;;;2.78;;
65315;SDS011;51920;53.952;10.292;2023-05-18T01:01:29;6.63;;;2.97;;
65315;SDS011;51920;53.952;10.292;2023-05-18T01:03:59;5.88;;;2.50;;
65315;SDS011;51920;53.952;10.292;2023-05-18T01:06:27;5.63;;;2.63;;
65315;SDS011;51920;53.952;10.292;2023-05-18T01:09:01;6.97;;;2.67;;
65315;SDS011;51920;53.952;10.292;2023-05-18T01:11:32;4.65;;;2.70;;
65315;SDS011;51920;53.952;10.292;2023-05-18T01:14:14;5.37;;;2.60;;
65315;SDS011;51920;53.952;10.292;2023-05-18T01:25:11;6.43;;;2.67;;
65315;SDS011;51920;53.952;10.292;2023-05-18T01:27:44;5.13;;;2.30;;
65315;SDS011;51920;53.952;10.292;2023-05-18T01:30:14;6.22;;;2.97;;
65315;SDS011;51920;53.952;10.292;2023-05-18T01:32:44;6.05;;;3.08;;
65315;SDS011;51920;53.952;10.292;2023-05-18T01:35:12;4.57;;;2.88;;
65315;SDS011;51920;53.952;10.292;2023-05-18T01:37:38;5.53;;;2.85;;
65315;SDS011;51920;53.952;10.292;2023-05-18T01:40:05;6.07;;;2.63;;
65315;SDS011;51920;53.952;10.292;2023-05-18T01:42:37;6.65;;;2.80;;
65315;SDS011;51920;53.952;10.292;2023-05-18T01:45:11;6.53;;;2.90;;
65315;SDS011;51920;53.952;10.292;2023-05-18T01:47:42;5.43;;;2.55;;
65315;SDS011;51920;53.952;10.292;2023-05-18T01:50:16;5.15;;;2.70;;
65315;SDS011;51920;53.952;10.292;2023-05-18T01:52:53;5.37;;;2.60;;
65315;SDS011;51920;53.952;10.292;2023-05-18T01:55:25;5.53;;;2.97;;
65315;SDS011;51920;53.952;10.292;2023-05-18T01:57:56;7.05;;;3.10;;
65315;SDS011;51920;53.952;10.292;2023-05-18T02:00:24;6.32;;;2.65;;
65315;SDS011;51920;53.952;10.292;2023-05-18T02:02:50;5.00;;;2.75;;
65315;SDS011;51920;53.952;10.292;2023-05-18T02:05:17;6.37;;;2.90;;
65315;SDS011;51920;53.952;10.292;2023-05-18T02:07:44;4.53;;;2.83;;
65315;SDS011;51920;53.952;10.292;2023-05-18T02:10:12;9.02;;;2.67;;
65315;SDS011;51920;53.952;10.292;2023-05-18T02:12:40;5.10;;;2.70;;
65315;SDS011;51920;53.952;10.292;2023-05-18T02:15:07;8.30;;;3.10;;
65315;SDS011;51920;53.952;10.292;2023-05-18T02:17:35;5.87;;;2.80;;
65315;SDS011;51920;53.952;10.292;2023-05-18T02:20:05;6.40;;;3.20;;
65315;SDS011;51920;53.952;10.292;2023-05-18T02:22:33;5.88;;;2.70;;
65315;SDS011;51920;53.952;10.292;2023-05-18T02:25:00;5.75;;;2.90;;
65315;SDS011;51920;53.952;10.292;2023-05-18T02:27:28;5.65;;;2.78;;
65315;SDS011;51920;53.952;10.292;2023-05-18T02:29:54;5.57;;;2.80;;
65315;SDS011;51920;53.952;10.292;2023-05-18T02:32:22;5.70;;;2.78;;
65315;SDS011;51920;53.952;10.292;2023-05-18T02:34:52;6.45;;;2.78;;
65315;SDS011;51920;53.952;10.292;2023-05-18T02:37:19;6.25;;;3.00;;
65315;SDS011;51920;53.952;10.292;2023-05-18T02:39:48;6.78;;;3.70;;
65315;SDS011;51920;53.952;10.292;2023-05-18T02:42:15;8.67;;;4.60;;
65315;SDS011;51920;53.952;10.292;2023-05-18T02:44:41;11.88;;;5.40;;
65315;SDS011;51920;53.952;10.292;2023-05-18T02:47:12;12.15;;;6.50;;
65315;SDS011;51920;53.952;10.292;2023-05-18T02:49:39;14.52;;;6.65;;
65315;SDS011;51920;53.952;10.292;2023-05-18T02:52:05;10.82;;;5.70;;
65315;SDS011;51920;53.952;10.292;2023-05-18T02:54:32;9.80;;;5.00;;
65315;SDS011;51920;53.952;10.292;2023-05-18T02:57:00;9.88;;;4.57;;
65315;SDS011;51920;53.952;10.292;2023-05-18T02:59:42;7.28;;;4.15;;
65315;SDS011;51920;53.952;10.292;2023-05-18T03:02:09;11.73;;;3.67;;
65315;SDS011;51920;53.952;10.292;2023-05-18T03:04:39;7.60;;;3.53;;
65315;SDS011;51920;53.952;10.292;2023-05-18T03:07:06;6.17;;;3.30;;
65315;SDS011;51920;53.952;10.292;2023-05-18T03:09:33;6.55;;;3.40;;
65315;SDS011;51920;53.952;10.292;2023-05-18T03:12:00;10.55;;;4.20;;
65315;SDS011;51920;53.952;10.292;2023-05-18T03:14:27;6.80;;;3.75;;
65315;SDS011;51920;53.952;10.292;2023-05-18T03:16:54;7.63;;;3.90;;
65315;SDS011;51920;53.952;10.292;2023-05-18T03:19:23;11.93;;;3.67;;
65315;SDS011;51920;53.952;10.292;2023-05-18T03:21:49;8.50;;;3.53;;
65315;SDS011;51920;53.952;10.292;2023-05-18T03:24:16;9.55;;;3.88;;
65315;SDS011;51920;53.952;10.292;2023-05-18T03:26:46;9.93;;;4.75;;
65315;SDS011;51920;53.952;10.292;2023-05-18T03:29:13;8.80;;;5.60;;
65315;SDS011;51920;53.952;10.292;2023-05-18T03:31:40;10.73;;;5.40;;
65315;SDS011;51920;53.952;10.292;2023-05-18T03:34:08;10.80;;;4.65;;
65315;SDS011;51920;53.952;10.292;2023-05-18T03:36:35;7.85;;;4.10;;
65315;SDS011;51920;53.952;10.292;2023-05-18T03:39:03;7.68;;;3.80;;
65315;SDS011;51920;53.952;10.292;2023-05-18T03:41:31;10.88;;;4.10;;
65315;SDS011;51920;53.952;10.292;2023-05-18T03:43:58;7.80;;;3.73;;
65315;SDS011;51920;53.952;10.292;2023-05-18T03:46:26;7.00;;;3.67;;
65315;SDS011;51920;53.952;10.292;2023-05-18T03:48:53;6.65;;;3.80;;
65315;SDS011;51920;53.952;10.292;2023-05-18T03:51:27;6.68;;;3.20;;
65315;SDS011;51920;53.952;10.292;2023-05-18T03:53:54;9.07;;;3.50;;
65315;SDS011;51920;53.952;10.292;2023-05-18T03:56:21;5.87;;;3.00;;
65315;SDS011;51920;53.952;10.292;2023-05-18T03:58:48;6.05;;;3.10;;
65315;SDS011;51920;53.952;10.292;2023-05-18T04:01:16;8.23;;;3.20;;
65315;SDS011;51920;53.952;10.292;2023-05-18T04:03:44;6.55;;;2.88;;
65315;SDS011;51920;53.952;10.292;2023-05-18T04:06:11;8.23;;;3.83;;
65315;SDS011;51920;53.952;10.292;2023-05-18T04:08:37;10.37;;;4.40;;
65315;SDS011;51920;53.952;10.292;2023-05-18T04:11:04;8.90;;;3.83;;
65315;SDS011;51920;53.952;10.292;2023-05-18T04:13:32;7.70;;;4.03;;
65315;SDS011;51920;53.952;10.292;2023-05-18T04:15:58;9.18;;;3.60;;
65315;SDS011;51920;53.952;10.292;2023-05-18T04:18:25;8.00;;;3.63;;
65315;SDS011;51920;53.952;10.292;2023-05-18T04:20:55;10.53;;;3.47;;
65315;SDS011;51920;53.952;10.292;2023-05-18T04:23:22;9.82;;;4.22;;
65315;SDS011;51920;53.952;10.292;2023-05-18T04:25:49;10.57;;;4.00;;
65315;SDS011;51920;53.952;10.292;2023-05-18T04:28:16;10.57;;;3.65;;
65315;SDS011;51920;53.952;10.292;2023-05-18T04:30:43;8.27;;;3.40;;
65315;SDS011;51920;53.952;10.292;2023-05-18T04:33:09;9.80;;;3.20;;
65315;SDS011;51920;53.952;10.292;2023-05-18T04:35:38;8.75;;;2.80;;
65315;SDS011;51920;53.952;10.292;2023-05-18T04:38:05;5.00;;;3.10;;
65315;SDS011;51920;53.952;10.292;2023-05-18T04:40:33;7.80;;;3.20;;
65315;SDS011;51920;53.952;10.292;2023-05-18T04:43:00;8.73;;;3.03;;
65315;SDS011;51920;53.952;10.292;2023-05-18T04:45:29;6.83;;;3.00;;
65315;SDS011;51920;53.952;10.292;2023-05-18T04:47:56;10.60;;;3.55;;
65315;SDS011;51920;53.952;10.292;2023-05-18T04:50:23;8.10;;;3.50;;
65315;SDS011;51920;53.952;10.292;2023-05-18T04:52:50;7.00;;;2.90;;
65315;SDS011;51920;53.952;10.292;2023-05-18T04:55:20;4.72;;;2.80;;
65315;SDS011;51920;53.952;10.292;2023-05-18T04:57:57;6.63;;;3.07;;
65315;SDS011;51920;53.952;10.292;2023-05-18T05:00:26;7.82;;;2.90;;
65315;SDS011;51920;53.952;10.292;2023-05-18T05:02:54;8.50;;;2.92;;
65315;SDS011;51920;53.952;10.292;2023-05-18T05:05:22;7.22;;;3.08;;
65315;SDS011;51920;53.952;10.292;2023-05-18T05:07:50;8.15;;;3.10;;
65315;SDS011;51920;53.952;10.292;2023-05-18T05:10:18;6.10;;;2.90;;
65315;SDS011;51920;53.952;10.292;2023-05-18T05:12:46;7.78;;;2.50;;
65315;SDS011;51920;53.952;10.292;2023-05-18T05:15:14;7.88;;;3.13;;
65315;SDS011;51920;53.952;10.292;2023-05-18T05:17:41;7.90;;;3.00;;
65315;SDS011;51920;53.952;10.292;2023-05-18T05:20:08;9.38;;;2.97;;
65315;SDS011;51920;53.952;10.292;2023-05-18T05:22:35;8.67;;;2.80;;
65315;SDS011;51920;53.952;10.292;2023-05-18T05:25:03;6.10;;;2.90;;
65315;SDS011;51920;53.952;10.292;2023-05-18T05:27:31;7.70;;;2.80;;
65315;SDS011;51920;53.952;10.292;2023-05-18T05:29:58;5.45;;;2.72;;
65315;SDS011;51920;53.952;10.292;2023-05-18T05:32:24;9.00;;;2.90;;
65315;SDS011;51920;53.952;10.292;2023-05-18T05:34:51;10.20;;;2.70;;
65315;SDS011;51920;53.952;10.292;2023-05-18T05:37:19;6.68;;;2.40;;
65315;SDS011;51920;53.952;10.292;2023-05-18T05:39:47;6.40;;;2.80;;
65315;SDS011;51920;53.952;10.292;2023-05-18T05:42:16;7.88;;;2.63;;
65315;SDS011;51920;53.952;10.292;2023-05-18T05:44:42;8.20;;;2.60;;
65315;SDS011;51920;53.952;10.292;2023-05-18T05:47:09;7.40;;;2.80;;
65315;SDS011;51920;53.952;10.292;2023-05-18T05:49:36;6.53;;;2.60;;
65315;SDS011;51920;53.952;10.292;2023-05-18T05:52:04;7.80;;;2.92;;
65315;SDS011;51920;53.952;10.292;2023-05-18T05:54:31;7.45;;;2.70;;
65315;SDS011;51920;53.952;10.292;2023-05-18T05:56:58;4.35;;;2.65;;
65315;SDS011;51920;53.952;10.292;2023-05-18T05:59:25;8.10;;;2.50;;
65315;SDS011;51920;53.952;10.292;2023-05-18T06:01:51;7.90;;;2.58;;
65315;SDS011;51920;53.952;10.292;2023-05-18T06:04:18;7.93;;;3.40;;
65315;SDS011;51920;53.952;10.292;2023-05-18T06:06:46;7.28;;;3.05;;
65315;SDS011;51920;53.952;10.292;2023-05-18T06:09:13;8.82;;;2.97;;
65315;SDS011;51920;53.952;10.292;2023-05-18T06:11:41;8.33;;;3.10;;
65315;SDS011;51920;53.952;10.292;2023-05-18T06:14:08;7.05;;;2.60;;
65315;SDS011;51920;53.952;10.292;2023-05-18T06:16:35;8.40;;;3.13;;
65315;SDS011;51920;53.952;10.292;2023-05-18T06:19:01;10.02;;;2.80;;
65315;SDS011;51920;53.952;10.292;2023-05-18T06:21:28;9.13;;;2.80;;
65315;SDS011;51920;53.952;10.292;2023-05-18T06:23:58;7.23;;;2.70;;
65315;SDS011;51920;53.952;10.292;2023-05-18T06:26:29;7.78;;;2.58;;
65315;SDS011;51920;53.952;10.292;2023-05-18T06:29:19;6.93;;;2.70;;
65315;SDS011;51920;53.952;10.292;2023-05-18T06:32:04;5.45;;;2.33;;
65315;SDS011;51920;53.952;10.292;2023-05-18T06:34:37;6.30;;;2.33;;
65315;SDS011;51920;53.952;10.292;2023-05-18T06:37:04;6.80;;;2.77;;
65315;SDS011;51920;53.952;10.292;2023-05-18T06:39:31;5.78;;;2.60;;
65315;SDS011;51920;53.952;10.292;2023-05-18T06:41:58;6.03;;;2.63;;
65315;SDS011;51920;53.952;10.292;2023-05-18T06:44:30;7.38;;;2.72;;
65315;SDS011;51920;53.952;10.292;2023-05-18T06:47:08;5.68;;;2.50;;
65315;SDS011;51920;53.952;10.292;2023-05-18T06:49:35;5.83;;;2.47;;
65315;SDS011;51920;53.952;10.292;2023-05-18T06:52:02;7.10;;;2.50;;
65315;SDS011;51920;53.952;10.292;2023-05-18T06:54:30;5.53;;;2.63;;
65315;SDS011;51920;53.952;10.292;2023-05-18T06:56:57;6.90;;;2.72;;
65315;SDS011;51920;53.952;10.292;2023-05-18T06:59:24;5.63;;;2.75;;
65315;SDS011;51920;53.952;10.292;2023-05-18T07:01:51;6.93;;;2.83;;
65315;SDS011;51920;53.952;10.292;2023-05-18T07:04:17;7.43;;;2.50;;
65315;SDS011;51920;53.952;10.292;2023-05-18T07:06:47;6.72;;;2.90;;
65315;SDS011;51920;53.952;10.292;2023-05-18T07:09:14;6.20;;;2.50;;
65315;SDS011;51920;53.952;10.292;2023-05-18T07:11:40;9.00;;;2.55;;
65315;SDS011;51920;53.952;10.292;2023-05-18T07:14:07;11.63;;;2.60;;
65315;SDS011;51920;53.952;10.292;2023-05-18T07:16:34;6.75;;;2.40;;
65315;SDS011;51920;53.952;10.292;2023-05-18T07:19:00;6.82;;;2.72;;
65315;SDS011;51920;53.952;10.292;2023-05-18T07:21:28;7.38;;;2.60;;
65315;SDS011;51920;53.952;10.292;2023-05-18T07:23:54;6.75;;;2.72;;
65315;SDS011;51920;53.952;10.292;2023-05-18T07:26:21;8.70;;;2.70;;
65315;SDS011;51920;53.952;10.292;2023-05-18T07:28:48;5.05;;;2.70;;
65315;SDS011;51920;53.952;10.292;2023-05-18T07:31:16;7.13;;;2.53;;
65315;SDS011;51920;53.952;10.292;2023-05-18T07:33:46;6.28;;;2.40;;
65315;SDS011;51920;53.952;10.292;2023-05-18T07:36:13;7.93;;;2.65;;
65315;SDS011;51920;53.952;10.292;2023-05-18T07:38:40;6.30;;;2.33;;
65315;SDS011;51920;53.952;10.292;2023-05-18T07:41:07;8.30;;;2.40;;
65315;SDS011;51920;53.952;10.292;2023-05-18T07:43:34;5.50;;;2.50;;
65315;SDS011;51920;53.952;10.292;2023-05-18T07:46:01;5.72;;;2.30;;
65315;SDS011;51920;53.952;10.292;2023-05-18T07:48:28;6.38;;;2.40;;
65315;SDS011;51920;53.952;10.292;2023-05-18T07:50:55;4.87;;;2.23;;
65315;SDS011;51920;53.952;10.292;2023-05-18T07:53:22;7.28;;;2.47;;
65315;SDS011;51920;53.952;10.292;2023-05-18T07:55:49;5.05;;;2.38;;
65315;SDS011;51920;53.952;10.292;2023-05-18T07:58:16;8.10;;;2.28;;
65315;SDS011;51920;53.952;10.292;2023-05-18T08:00:43;9.63;;;2.50;;
65315;SDS011;51920;53.952;10.292;2023-05-18T08:03:09;5.00;;;2.53;;
65315;SDS011;51920;53.952;10.292;2023-05-18T08:05:36;7.65;;;2.85;;
65315;SDS011;51920;53.952;10.292;2023-05-18T08:08:03;5.38;;;2.47;;
65315;SDS011;51920;53.952;10.292;2023-05-18T08:10:31;7.70;;;2.28;;
65315;SDS011;51920;53.952;10.292;2023-05-18T08:12:58;9.75;;;2.78;;
65315;SDS011;51920;53.952;10.292;2023-05-18T08:15:25;6.17;;;2.70;;
65315;SDS011;51920;53.952;10.292;2023-05-18T08:17:52;5.60;;;2.60;;
65315;SDS011;51920;53.952;10.292;2023-05-18T08:20:20;4.63;;;2.75;;
65315;SDS011;51920;53.952;10.292;2023-05-18T08:22:47;5.30;;;2.40;;
65315;SDS011;51920;53.952;10.292;2023-05-18T08:25:14;7.55;;;2.50;;
65315;SDS011;51920;53.952;10.292;2023-05-18T08:27:41;5.07;;;2.20;;
65315;SDS011;51920;53.952;10.292;2023-05-18T08:30:08;3.90;;;2.30;;
65315;SDS011;51920;53.952;10.292;2023-05-18T08:32:35;6.40;;;2.50;;
65315;SDS011;51920;53.952;10.292;2023-05-18T08:35:03;6.43;;;2.47;;
65315;SDS011;51920;53.952;10.292;2023-05-18T08:37:31;6.13;;;2.42;;
65315;SDS011;51920;53.952;10.292;2023-05-18T08:39:57;5.37;;;2.60;;
65315;SDS011;51920;53.952;10.292;2023-05-18T08:42:28;4.38;;;2.05;;
65315;SDS011;51920;53.952;10.292;2023-05-18T08:45:11;5.82;;;2.50;;
65315;SDS011;51920;53.952;10.292;2023-05-18T08:47:43;5.00;;;2.50;;
65315;SDS011;51920;53.952;10.292;2023-05-18T08:50:10;3.85;;;2.28;;
65315;SDS011;51920;53.952;10.292;2023-05-18T08:52:41;7.27;;;2.40;;
65315;SDS011;51920;53.952;10.292;2023-05-18T08:55:12;5.45;;;2.20;;
65315;SDS011;51920;53.952;10.292;2023-05-18T08:57:43;8.27;;;2.40;;
65315;SDS011;51920;53.952;10.292;2023-05-18T09:00:15;6.15;;;2.28;;
65315;SDS011;51920;53.952;10.292;2023-05-18T09:02:42;6.40;;;2.70;;
65315;SDS011;51920;53.952;10.292;2023-05-18T09:05:10;5.87;;;2.77;;
65315;SDS011;51920;53.952;10.292;2023-05-18T09:07:38;5.50;;;2.30;;
65315;SDS011;51920;53.952;10.292;2023-05-18T09:10:10;8.20;;;2.58;;
65315;SDS011;51920;53.952;10.292;2023-05-18T09:12:40;5.78;;;2.55;;
65315;SDS011;51920;53.952;10.292;2023-05-18T09:15:09;6.00;;;2.67;;
65315;SDS011;51920;53.952;10.292;2023-05-18T09:17:36;5.53;;;2.33;;
65315;SDS011;51920;53.952;10.292;2023-05-18T09:20:04;4.50;;;2.40;;
65315;SDS011;51920;53.952;10.292;2023-05-18T09:22:32;5.38;;;2.58;;
65315;SDS011;51920;53.952;10.292;2023-05-18T09:25:01;6.28;;;2.58;;
65315;SDS011;51920;53.952;10.292;2023-05-18T09:27:29;5.22;;;2.65;;
65315;SDS011;51920;53.952;10.292;2023-05-18T09:29:57;5.30;;;2.40;;
65315;SDS011;51920;53.952;10.292;2023-05-18T09:32:24;8.82;;;2.55;;
65315;SDS011;51920;53.952;10.292;2023-05-18T09:34:52;5.05;;;2.80;;
65315;SDS011;51920;53.952;10.292;2023-05-18T09:37:20;6.95;;;3.10;;
65315;SDS011;51920;53.952;10.292;2023-05-18T09:39:57;4.55;;;2.50;;
65315;SDS011;51920;53.952;10.292;2023-05-18T09:42:26;5.50;;;2.13;;
65315;SDS011;51920;53.952;10.292;2023-05-18T09:45:15;8.10;;;2.50;;
65315;SDS011;51920;53.952;10.292;2023-05-18T09:47:45;6.63;;;2.60;;
65315;SDS011;51920;53.952;10.292;2023-05-18T09:50:18;5.00;;;2.45;;
65315;SDS011;51920;53.952;10.292;2023-05-18T09:52:46;6.32;;;3.15;;
65315;SDS011;51920;53.952;10.292;2023-05-18T09:55:15;5.97;;;2.60;;
65315;SDS011;51920;53.952;10.292;2023-05-18T09:57:42;4.85;;;2.20;;
65315;SDS011;51920;53.952;10.292;2023-05-18T10:00:11;9.13;;;3.00;;
65315;SDS011;51920;53.952;10.292;2023-05-18T10:02:47;6.35;;;2.90;;
65315;SDS011;51920;53.952;10.292;2023-05-18T10:05:18;6.75;;;2.60;;
65315;SDS011;51920;53.952;10.292;2023-05-18T10:07:45;5.67;;;2.83;;
65315;SDS011;51920;53.952;10.292;2023-05-18T10:10:13;5.82;;;2.92;;
65315;SDS011;51920;53.952;10.292;2023-05-18T10:12:43;7.20;;;2.70;;
65315;SDS011;51920;53.952;10.292;2023-05-18T10:15:14;4.55;;;2.50;;
65315;SDS011;51920;53.952;10.292;2023-05-18T10:17:42;5.25;;;2.70;;
65315;SDS011;51920;53.952;10.292;2023-05-18T10:20:10;5.33;;;2.50;;
65315;SDS011;51920;53.952;10.292;2023-05-18T10:22:43;7.53;;;2.60;;
65315;SDS011;51920;53.952;10.292;2023-05-18T10:25:13;7.35;;;2.67;;
65315;SDS011;51920;53.952;10.292;2023-05-18T10:27:43;5.97;;;2.50;;
65315;SDS011;51920;53.952;10.292;2023-05-18T10:30:11;11.65;;;2.90;;
65315;SDS011;51920;53.952;10.292;2023-05-18T10:32:40;4.97;;;2.67;;
65315;SDS011;51920;53.952;10.292;2023-05-18T10:35:08;8.50;;;2.70;;
65315;SDS011;51920;53.952;10.292;2023-05-18T10:37:37;4.00;;;2.40;;
65315;SDS011;51920;53.952;10.292;2023-05-18T10:40:06;7.47;;;2.90;;
65315;SDS011;51920;53.952;10.292;2023-05-18T10:42:33;5.70;;;3.13;;
65315;SDS011;51920;53.952;10.292;2023-05-18T10:45:01;5.73;;;2.80;;
65315;SDS011;51920;53.952;10.292;2023-05-18T10:47:29;5.80;;;2.80;;
65315;SDS011;51920;53.952;10.292;2023-05-18T10:49:58;6.50;;;2.97;;
65315;SDS011;51920;53.952;10.292;2023-05-18T10:52:28;5.78;;;2.67;;
65315;SDS011;51920;53.952;10.292;2023-05-18T10:54:57;6.07;;;2.72;;
65315;SDS011;51920;53.952;10.292;2023-05-18T10:57:28;6.23;;;2.60;;
65315;SDS011;51920;53.952;10.292;2023-05-18T10:59:59;9.00;;;2.85;;
65315;SDS011;51920;53.952;10.292;2023-05-18T11:02:27;5.35;;;2.83;;
65315;SDS011;51920;53.952;10.292;2023-05-18T11:04:54;4.57;;;2.70;;
65315;SDS011;51920;53.952;10.292;2023-05-18T11:07:22;6.07;;;2.72;;
65315;SDS011;51920;53.952;10.292;2023-05-18T11:09:49;9.53;;;2.60;;
65315;SDS011;51920;53.952;10.292;2023-05-18T11:12:17;5.85;;;2.88;;
65315;SDS011;51920;53.952;10.292;2023-05-18T11:14:48;6.30;;;2.88;;
65315;SDS011;51920;53.952;10.292;2023-05-18T11:17:17;7.35;;;2.60;;
65315;SDS011;51920;53.952;10.292;2023-05-18T11:22:50;6.83;;;2.77;;
65315;SDS011;51920;53.952;10.292;2023-05-18T11:27:55;6.78;;;2.83;;
65315;SDS011;51920;53.952;10.292;2023-05-18T11:30:27;5.90;;;2.60;;
65315;SDS011;51920;53.952;10.292;2023-05-18T11:33:08;5.82;;;2.80;;
65315;SDS011;51920;53.952;10.292;2023-05-18T11:38:21;6.13;;;2.80;;
65315;SDS011;51920;53.952;10.292;2023-05-18T11:43:40;5.22;;;2.60;;
65315;SDS011;51920;53.952;10.292;2023-05-18T11:46:07;6.63;;;3.20;;
65315;SDS011;51920;53.952;10.292;2023-05-18T11:48:43;5.30;;;2.60;;
65315;SDS011;51920;53.952;10.292;2023-05-18T11:51:10;4.78;;;2.63;;
65315;SDS011;51920;53.952;10.292;2023-05-18T11:53:37;5.57;;;2.60;;
65315;SDS011;51920;53.952;10.292;2023-05-18T11:56:04;5.55;;;2.75;;
65315;SDS011;51920;53.952;10.292;2023-05-18T11:58:31;4.97;;;2.60;;
65315;SDS011;51920;53.952;10.292;2023-05-18T12:00:58;4.50;;;2.60;;
65315;SDS011;51920;53.952;10.292;2023-05-18T12:03:27;6.43;;;2.60;;
65315;SDS011;51920;53.952;10.292;2023-05-18T12:05:56;6.38;;;2.90;;
65315;SDS011;51920;53.952;10.292;2023-05-18T12:08:26;7.30;;;2.90;;
65315;SDS011;51920;53.952;10.292;2023-05-18T12:10:55;5.55;;;2.70;;
65315;SDS011;51920;53.952;10.292;2023-05-18T12:13:22;7.80;;;2.70;;
65315;SDS011;51920;53.952;10.292;2023-05-18T12:15:49;7.93;;;3.10;;
65315;SDS011;51920;53.952;10.292;2023-05-18T12:18:17;4.60;;;2.80;;
65315;SDS011;51920;53.952;10.292;2023-05-18T12:20:44;5.00;;;2.80;;
65315;SDS011;51920;53.952;10.292;2023-05-18T12:23:13;6.95;;;2.70;;
65315;SDS011;51920;53.952;10.292;2023-05-18T12:25:39;5.83;;;2.70;;
65315;SDS011;51920;53.952;10.292;2023-05-18T12:28:07;7.22;;;2.70;;
65315;SDS011;51920;53.952;10.292;2023-05-18T12:30:34;6.03;;;2.80;;
65315;SDS011;51920;53.952;10.292;2023-05-18T12:33:01;6.53;;;2.80;;
65315;SDS011;51920;53.952;10.292;2023-05-18T12:35:29;5.07;;;3.00;;
65315;SDS011;51920;53.952;10.292;2023-05-18T12:37:56;4.87;;;2.60;;
65315;SDS011;51920;53.952;10.292;2023-05-18T12:40:26;7.90;;;2.85;;
65315;SDS011;51920;53.952;10.292;2023-05-18T12:42:59;5.78;;;2.80;;
65315;SDS011;51920;53.952;10.292;2023-05-18T12:45:27;5.95;;;2.50;;
65315;SDS011;51920;53.952;10.292;2023-05-18T12:48:04;5.65;;;2.50;;
65315;SDS011;51920;53.952;10.292;2023-05-18T12:50:31;6.43;;;2.60;;
65315;SDS011;51920;53.952;10.292;2023-05-18T12:52:58;5.93;;;2.60;;
65315;SDS011;51920;53.952;10.292;2023-05-18T12:55:27;7.30;;;3.00;;
65315;SDS011;51920;53.952;10.292;2023-05-18T12:58:06;6.72;;;2.70;;
65315;SDS011;51920;53.952;10.292;2023-05-18T13:00:44;7.75;;;3.17;;
65315;SDS011;51920;53.952;10.292;2023-05-18T13:03:13;5.70;;;2.63;;
65315;SDS011;51920;53.952;10.292;2023-05-18T13:05:42;5.07;;;2.90;;
65315;SDS011;51920;53.952;10.292;2023-05-18T13:08:14;5.97;;;2.90;;
65315;SDS011;51920;53.952;10.292;2023-05-18T13:10:43;6.65;;;3.10;;
65315;SDS011;51920;53.952;10.292;2023-05-18T13:13:13;5.20;;;2.80;;
65315;SDS011;51920;53.952;10.292;2023-05-18T13:15:41;5.77;;;2.67;;
65315;SDS011;51920;53.952;10.292;2023-05-18T13:18:09;4.70;;;2.58;;
65315;SDS011;51920;53.952;10.292;2023-05-18T13:20:43;3.78;;;2.35;;
65315;SDS011;51920;53.952;10.292;2023-05-18T13:23:17;5.43;;;2.95;;
65315;SDS011;51920;53.952;10.292;2023-05-18T13:25:45;5.97;;;2.88;;
65315;SDS011;51920;53.952;10.292;2023-05-18T13:28:12;4.93;;;2.50;;
65315;SDS011;51920;53.952;10.292;2023-05-18T13:30:40;4.60;;;2.40;;
65315;SDS011;51920;53.952;10.292;2023-05-18T13:33:08;3.67;;;2.53;;
65315;SDS011;51920;53.952;10.292;2023-05-18T13:35:39;8.25;;;2.63;;
65315;SDS011;51920;53.952;10.292;2023-05-18T13:38:07;6.35;;;2.53;;
65315;SDS011;51920;53.952;10.292;2023-05-18T13:40:36;4.87;;;2.50;;
65315;SDS011;51920;53.952;10.292;2023-05-18T13:43:03;5.28;;;2.20;;
65315;SDS011;51920;53.952;10.292;2023-05-18T13:45:34;5.57;;;2.67;;
65315;SDS011;51920;53.952;10.292;2023-05-18T13:48:01;3.60;;;2.20;;
65315;SDS011;51920;53.952;10.292;2023-05-18T13:50:34;4.70;;;2.50;;
65315;SDS011;51920;53.952;10.292;2023-05-18T13:53:01;5.00;;;2.10;;
65315;SDS011;51920;53.952;10.292;2023-05-18T13:55:27;6.90;;;2.45;;
65315;SDS011;51920;53.952;10.292;2023-05-18T13:57:54;5.43;;;2.63;;
65315;SDS011;51920;53.952;10.292;2023-05-18T14:00:23;3.85;;;2.50;;
65315;SDS011;51920;53.952;10.292;2023-05-18T14:02:50;6.30;;;2.50;;
65315;SDS011;51920;53.952;10.292;2023-05-18T14:05:18;4.33;;;2.50;;
65315;SDS011;51920;53.952;10.292;2023-05-18T14:07:45;4.88;;;2.50;;
65315;SDS011;51920;53.952;10.292;2023-05-18T14:10:12;6.15;;;2.60;;
65315;SDS011;51920;53.952;10.292;2023-05-18T14:12:39;5.75;;;2.60;;
65315;SDS011;51920;53.952;10.292;2023-05-18T14:15:07;5.45;;;2.60;;
65315;SDS011;51920;53.952;10.292;2023-05-18T14:17:36;6.93;;;2.70;;
65315;SDS011;51920;53.952;10.292;2023-05-18T14:20:03;5.47;;;2.45;;
65315;SDS011;51920;53.952;10.292;2023-05-18T14:22:31;5.63;;;2.88;;
65315;SDS011;51920;53.952;10.292;2023-05-18T14:24:58;6.22;;;2.40;;
65315;SDS011;51920;53.952;10.292;2023-05-18T14:27:25;5.85;;;2.60;;
65315;SDS011;51920;53.952;10.292;2023-05-18T14:29:53;6.47;;;2.80;;
65315;SDS011;51920;53.952;10.292;2023-05-18T14:32:19;3.78;;;2.55;;
65315;SDS011;51920;53.952;10.292;2023-05-18T14:34:46;6.53;;;2.80;;
65315;SDS011;51920;53.952;10.292;2023-05-18T14:37:13;6.55;;;2.70;;
65315;SDS011;51920;53.952;10.292;2023-05-18T14:39:40;5.93;;;2.90;;
65315;SDS011;51920;53.952;10.292;2023-05-18T14:42:07;6.63;;;2.57;;
65315;SDS011;51920;53.952;10.292;2023-05-18T14:44:33;4.60;;;2.45;;
65315;SDS011;51920;53.952;10.292;2023-05-18T14:47:01;6.70;;;2.70;;
65315;SDS011;51920;53.952;10.292;2023-05-18T14:49:28;8.77;;;2.70;;
65315;SDS011;51920;53.952;10.292;2023-05-18T14:51:55;6.18;;;2.75;;
65315;SDS011;51920;53.952;10.292;2023-05-18T14:54:22;7.50;;;2.80;;
65315;SDS011;51920;53.952;10.292;2023-05-18T14:56:49;4.85;;;2.60;;
65315;SDS011;51920;53.952;10.292;2023-05-18T14:59:16;7.63;;;2.83;;